Terminal Aerodrome Forecast
Issued by NWS

Home | Current Version | Previous Version | Text Only | Print | Product List | Glossary On
Versions: 1 2 3 4 5 6 7 8 9 10 11 12 13 14 15 16 17 18 19 20 21 22 23 24 25 26 27 28 29 30 31 32 33 34 35 36 37 38 39 40 41 42 43 44 45 46 47 48 49 50
000
FTUS45 KGJT 251324 AAC
TAFRIL
TAF AMD
KRIL 251324Z 2513/2612 00000KT P6SM FEW035 SCT200
      TEMPO 2513/2516 OVC030
     FM251900 26006KT P6SM VCSH BKN060
     FM252100 26009KT P6SM OVC050
     FM252300 26008KT P6SM VCSH OVC050
     FM260200 26004KT P6SM VCSH OVC050
     FM260500 VRB03KT P6SM VCSH OVC035=

USA.gov is the U.S. government's official web portal to all federal, state and local government web resources and services.